createdAt,value
2023-04-10T00:00:04.345Z,100.00
2023-04-10T00:02:32.206Z,100.00
2023-04-10T00:05:00.772Z,100.00
2023-04-10T00:07:27.905Z,100.00
2023-04-10T00:09:55.063Z,100.00
2023-04-10T00:12:22.196Z,100.00
2023-04-10T00:14:49.297Z,100.00
2023-04-10T00:17:16.448Z,100.00
2023-04-10T00:19:46.552Z,100.00
2023-04-10T00:22:13.783Z,100.00
2023-04-10T00:24:41.132Z,100.00
2023-04-10T00:27:08.235Z,100.00
2023-04-10T00:29:35.493Z,100.00
2023-04-10T00:32:02.785Z,100.00
2023-04-10T00:34:30.017Z,100.00
2023-04-10T00:36:58.599Z,100.00
2023-04-10T00:39:25.898Z,100.00
2023-04-10T00:41:53.024Z,100.00
2023-04-10T00:44:21.178Z,100.00
2023-04-10T00:46:48.586Z,100.00
2023-04-10T00:49:16.013Z,100.00
2023-04-10T00:51:43.746Z,100.00
2023-04-10T00:54:11.265Z,100.00
2023-04-10T00:56:38.537Z,100.00
2023-04-10T00:59:07.271Z,100.00
2023-04-10T01:01:34.851Z,100.00
2023-04-10T01:04:02.528Z,100.00
2023-04-10T01:07:05.169Z,100.00
2023-04-10T01:09:47.481Z,100.00
2023-04-10T01:12:43.587Z,100.00
2023-04-10T01:15:15.714Z,100.00
2023-04-10T01:17:52.274Z,100.00
2023-04-10T01:20:23.695Z,100.00
2023-04-10T01:23:26.443Z,100.00
2023-04-10T01:26:01.152Z,100.00
2023-04-10T01:29:05.950Z,100.00
2023-04-10T01:31:58.484Z,100.00
2023-04-10T01:34:46.848Z,100.00
2023-04-10T01:37:17.205Z,100.00
2023-04-10T01:39:50.448Z,100.00
2023-04-10T01:42:22.776Z,100.00
2023-04-10T01:44:52.399Z,100.00
2023-04-10T01:47:19.894Z,100.00
2023-04-10T01:49:48.975Z,100.00
2023-04-10T01:52:17.437Z,100.00
2023-04-10T01:54:50.453Z,100.00
2023-04-10T01:57:24.682Z,100.00
2023-04-10T01:59:55.422Z,100.00
2023-04-10T02:02:22.869Z,100.00
2023-04-10T02:04:51.889Z,100.00
2023-04-10T02:07:25.021Z,100.00
2023-04-10T02:10:17.898Z,100.00
2023-04-10T02:13:00.013Z,100.00
2023-04-10T02:15:40.452Z,100.00
2023-04-10T02:18:10.168Z,100.00
2023-04-10T02:20:37.560Z,100.00
2023-04-10T02:23:05.571Z,100.00
2023-04-10T02:25:33.241Z,100.00
2023-04-10T02:28:15.004Z,100.00
2023-04-10T02:30:42.781Z,100.00
2023-04-10T02:33:12.346Z,100.00
2023-04-10T02:35:39.457Z,100.00
2023-04-10T02:38:06.586Z,100.00
2023-04-10T02:40:37.142Z,100.00
2023-04-10T02:43:12.120Z,100.00
2023-04-10T02:45:42.005Z,100.00
2023-04-10T02:48:11.510Z,100.00
2023-04-10T02:50:38.789Z,100.00
2023-04-10T02:53:06.118Z,100.00
2023-04-10T02:55:33.413Z,100.00
2023-04-10T02:58:00.605Z,100.00
2023-04-10T03:00:29.662Z,100.00
2023-04-10T03:03:16.177Z,100.00
2023-04-10T03:05:50.422Z,100.00
2023-04-10T03:08:22.702Z,100.00
2023-04-10T03:10:50.641Z,100.00
2023-04-10T03:13:17.778Z,100.00
2023-04-10T03:15:44.940Z,100.00
2023-04-10T03:18:12.121Z,100.00
2023-04-10T03:20:43.779Z,100.00
2023-04-10T03:23:12.154Z,100.00
2023-04-10T03:25:39.290Z,100.00
2023-04-10T03:28:07.990Z,100.00
2023-04-10T03:30:37.742Z,100.00
2023-04-10T03:33:08.968Z,100.00
2023-04-10T03:35:36.732Z,100.00
2023-04-10T03:38:03.901Z,100.00
2023-04-10T03:40:31.316Z,100.00
2023-04-10T03:42:58.517Z,100.00
2023-04-10T03:45:28.938Z,100.00
2023-04-10T03:47:56.354Z,100.00
2023-04-10T03:50:23.506Z,100.00
2023-04-10T03:52:58.679Z,100.00
2023-04-10T03:55:26.658Z,100.00
2023-04-10T03:57:54.868Z,100.00
2023-04-10T04:00:24.644Z,100.00
2023-04-10T04:03:00.978Z,100.00
2023-04-10T04:05:53.795Z,100.00
2023-04-10T04:08:28.564Z,100.00
2023-04-10T04:11:06.839Z,100.00
2023-04-10T04:13:52.677Z,100.00
2023-04-10T04:16:38.765Z,100.00
2023-04-10T04:19:18.284Z,100.00
2023-04-10T04:22:04.142Z,100.00
2023-04-10T04:24:54.061Z,100.00
2023-04-10T04:27:36.128Z,100.00
2023-04-10T04:30:11.671Z,100.00
2023-04-10T04:32:49.735Z,100.00
2023-04-10T04:35:35.352Z,100.00
2023-04-10T04:38:22.027Z,100.00
2023-04-10T04:41:07.556Z,100.00
2023-04-10T04:44:01.965Z,100.00
2023-04-10T04:46:48.251Z,100.00
2023-04-10T04:49:24.591Z,100.00
2023-04-10T04:52:09.338Z,100.00
2023-04-10T04:54:41.015Z,100.00
2023-04-10T04:57:25.223Z,100.00
2023-04-10T05:00:28.086Z,100.00
2023-04-10T05:03:22.342Z,100.00
2023-04-10T05:06:07.970Z,100.00
2023-04-10T05:09:12.772Z,100.00
2023-04-10T05:11:59.018Z,100.00
2023-04-10T05:14:46.608Z,100.00
2023-04-10T05:17:32.500Z,100.00
2023-04-10T05:20:22.980Z,100.00
2023-04-10T05:23:07.266Z,100.00
2023-04-10T05:25:56.097Z,100.00
2023-04-10T05:28:52.577Z,100.00
2023-04-10T05:31:34.807Z,100.00
2023-04-10T05:34:15.924Z,100.00
2023-04-10T05:36:52.757Z,100.00
2023-04-10T05:39:36.346Z,100.00
2023-04-10T05:42:13.488Z,100.00
2023-04-10T05:44:47.388Z,100.00
2023-04-10T05:47:38.961Z,100.00
2023-04-10T05:50:25.566Z,100.00
2023-04-10T05:53:20.322Z,100.00
2023-04-10T05:56:05.543Z,100.00
2023-04-10T05:58:46.540Z,100.00
2023-04-10T06:01:32.013Z,100.00
2023-04-10T06:04:03.032Z,100.00
2023-04-10T06:06:32.863Z,100.00
2023-04-10T06:09:00.007Z,100.00
2023-04-10T06:11:27.592Z,100.00
2023-04-10T06:13:56.906Z,100.00
2023-04-10T06:16:30.936Z,100.00
2023-04-10T06:18:59.080Z,100.00
2023-04-10T06:21:26.381Z,100.00
2023-04-10T06:23:56.617Z,100.00
2023-04-10T06:26:24.970Z,100.00
2023-04-10T06:28:52.654Z,100.00
2023-04-10T06:31:22.122Z,100.00
2023-04-10T06:33:50.415Z,100.00
2023-04-10T06:36:17.893Z,100.00
2023-04-10T06:38:51.746Z,100.00
2023-04-10T06:41:19.100Z,100.00
2023-04-10T06:43:46.368Z,100.00
2023-04-10T06:46:14.281Z,100.00
2023-04-10T06:48:41.596Z,100.00
2023-04-10T06:51:08.788Z,100.00
2023-04-10T06:53:35.902Z,100.00
2023-04-10T06:56:07.498Z,100.00
2023-04-10T06:58:34.751Z,100.00
2023-04-10T07:01:04.758Z,100.00
2023-04-10T07:03:32.594Z,100.00
2023-04-10T07:05:59.872Z,100.00
2023-04-10T07:08:26.875Z,100.00
2023-04-10T07:10:58.620Z,100.00
2023-04-10T07:13:26.391Z,100.00
2023-04-10T07:15:53.639Z,100.00
2023-04-10T07:18:21.007Z,100.00
2023-04-10T07:20:48.590Z,100.00
2023-04-10T07:23:15.866Z,100.00
2023-04-10T07:25:43.462Z,100.00
2023-04-10T07:28:10.671Z,100.00
2023-04-10T07:30:37.733Z,100.00
2023-04-10T07:33:04.983Z,100.00
2023-04-10T07:35:32.179Z,100.00
2023-04-10T07:37:59.266Z,100.00
2023-04-10T07:40:26.625Z,100.00
2023-04-10T07:42:53.954Z,100.00
2023-04-10T07:45:21.190Z,100.00
2023-04-10T07:47:48.329Z,100.00
2023-04-10T07:50:16.226Z,100.00
2023-04-10T07:52:43.266Z,100.00
2023-04-10T07:55:10.671Z,100.00
2023-04-10T07:57:37.968Z,100.00
2023-04-10T08:00:05.858Z,100.00
2023-04-10T08:02:41.344Z,100.00
2023-04-10T08:05:09.079Z,100.00
2023-04-10T08:07:36.544Z,100.00
2023-04-10T08:10:04.224Z,100.00
2023-04-10T08:12:38.930Z,100.00
2023-04-10T08:15:06.863Z,100.00
2023-04-10T08:17:36.161Z,100.00
2023-04-10T08:20:05.187Z,100.00
2023-04-10T08:22:35.223Z,100.00
2023-04-10T08:25:04.561Z,100.00
2023-04-10T08:27:32.643Z,100.00
2023-04-10T08:29:59.778Z,100.00
2023-04-10T08:32:28.297Z,97.55
2023-04-10T08:34:55.739Z,96.84
2023-04-10T08:37:27.065Z,91.83
2023-04-10T08:39:54.340Z,91.34
2023-04-10T08:42:22.412Z,90.62
2023-04-10T08:44:50.942Z,88.50
2023-04-10T08:47:21.534Z,90.04
2023-04-10T08:49:57.500Z,86.52
2023-04-10T08:52:26.120Z,87.82
2023-04-10T08:54:58.712Z,87.97
2023-04-10T08:57:27.636Z,89.67
2023-04-10T08:59:55.645Z,94.33
2023-04-10T09:02:23.092Z,89.53
2023-04-10T09:04:55.366Z,97.97
2023-04-10T09:07:26.167Z,93.98
2023-04-10T09:09:53.645Z,98.03
2023-04-10T09:12:21.078Z,97.72
2023-04-10T09:14:56.390Z,95.42
2023-04-10T09:17:26.576Z,92.08
2023-04-10T09:19:56.099Z,88.20
2023-04-10T09:22:32.144Z,88.09
2023-04-10T09:25:00.894Z,91.76
2023-04-10T09:27:37.538Z,86.71
2023-04-10T09:30:06.514Z,83.21
2023-04-10T09:32:40.268Z,80.78
2023-04-10T09:35:14.475Z,80.27
2023-04-10T09:37:47.447Z,79.56
2023-04-10T09:40:28.262Z,83.60
2023-04-10T09:42:59.333Z,79.91
2023-04-10T09:45:27.279Z,80.12
2023-04-10T09:48:14.260Z,77.26
2023-04-10T09:50:41.682Z,71.11
2023-04-10T09:53:14.266Z,72.34
2023-04-10T09:55:44.885Z,74.16
2023-04-10T09:58:12.463Z,69.34
2023-04-10T10:00:45.697Z,68.86
2023-04-10T10:03:18.106Z,67.82
2023-04-10T10:05:50.988Z,68.84
2023-04-10T10:08:18.570Z,70.46
2023-04-10T10:10:59.967Z,68.07
2023-04-10T10:13:34.841Z,67.01
2023-04-10T10:16:15.972Z,68.96
2023-04-10T10:18:58.278Z,66.65
2023-04-10T10:21:31.204Z,69.72
2023-04-10T10:24:00.954Z,70.42
2023-04-10T10:26:31.712Z,69.94
2023-04-10T10:29:13.620Z,67.86
2023-04-10T10:31:42.960Z,69.25
2023-04-10T10:34:16.848Z,73.14
2023-04-10T10:36:44.802Z,68.82
2023-04-10T10:39:30.124Z,67.91
2023-04-10T10:41:58.447Z,70.38
2023-04-10T10:44:53.895Z,75.08
2023-04-10T10:47:27.305Z,68.64
2023-04-10T10:50:04.331Z,67.27
2023-04-10T10:52:45.877Z,66.81
2023-04-10T10:55:27.867Z,68.04
2023-04-10T10:57:59.311Z,68.07
2023-04-10T11:00:48.630Z,70.58
2023-04-10T11:03:18.551Z,71.11
2023-04-10T11:06:08.930Z,77.14
2023-04-10T11:08:44.283Z,74.94
2023-04-10T11:11:30.123Z,74.66
2023-04-10T11:14:09.491Z,75.59
2023-04-10T11:16:39.824Z,75.68
2023-04-10T11:19:16.967Z,72.86
2023-04-10T11:22:05.782Z,76.01
2023-04-10T11:25:00.700Z,69.89
2023-04-10T11:28:06.410Z,69.29
2023-04-10T11:30:43.392Z,69.65
2023-04-10T11:33:17.905Z,69.53
2023-04-10T11:35:49.278Z,68.38
2023-04-10T11:38:19.439Z,67.88
2023-04-10T11:41:02.402Z,70.51
2023-04-10T11:43:35.059Z,69.82
2023-04-10T11:46:09.139Z,67.87
2023-04-10T11:48:37.792Z,62.52
2023-04-10T11:51:09.668Z,64.19
2023-04-10T11:53:37.479Z,65.52
2023-04-10T11:56:07.784Z,62.03
2023-04-10T11:58:44.414Z,64.78
2023-04-10T12:01:14.668Z,64.12
2023-04-10T12:03:49.925Z,65.06
2023-04-10T12:06:19.950Z,64.06
2023-04-10T12:08:51.946Z,59.97
2023-04-10T12:11:23.983Z,61.74
2023-04-10T12:13:59.478Z,61.19
2023-04-10T12:16:27.841Z,61.27
2023-04-10T12:18:58.820Z,62.00
2023-04-10T12:21:28.934Z,64.76
2023-04-10T12:23:58.708Z,63.43
2023-04-10T12:26:29.196Z,62.50
2023-04-10T12:29:00.026Z,57.08
2023-04-10T12:31:37.469Z,56.71
2023-04-10T12:34:08.482Z,56.68
2023-04-10T12:36:45.656Z,53.56
2023-04-10T12:39:29.553Z,55.05
2023-04-10T12:42:19.212Z,56.13
2023-04-10T12:45:03.548Z,55.92
2023-04-10T12:47:45.333Z,54.87
2023-04-10T12:50:26.532Z,56.98
2023-04-10T12:53:14.143Z,55.19
2023-04-10T12:55:55.834Z,53.33
2023-04-10T12:58:28.930Z,53.28
2023-04-10T13:01:02.616Z,53.67
2023-04-10T13:03:30.667Z,53.68
2023-04-10T13:05:59.364Z,50.37
2023-04-10T13:08:32.664Z,50.35
2023-04-10T13:11:04.303Z,49.75
2023-04-10T13:13:36.635Z,51.43
2023-04-10T13:16:09.191Z,50.50
2023-04-10T13:18:45.239Z,47.28
2023-04-10T13:21:18.814Z,50.15
2023-04-10T13:23:47.291Z,49.09
2023-04-10T13:26:14.827Z,49.19
2023-04-10T13:28:42.196Z,45.25
2023-04-10T13:31:11.481Z,43.03
2023-04-10T13:33:38.634Z,44.70
2023-04-10T13:36:06.536Z,48.40
2023-04-10T13:38:37.117Z,48.28
2023-04-10T13:41:04.636Z,50.19
2023-04-10T13:43:33.635Z,48.36
2023-04-10T13:46:04.046Z,46.73
2023-04-10T13:48:41.525Z,48.10
2023-04-10T13:51:08.960Z,48.65
2023-04-10T13:53:36.151Z,47.21
2023-04-10T13:56:03.297Z,48.22
2023-04-10T13:58:34.434Z,48.50
2023-04-10T14:01:01.732Z,47.28
2023-04-10T14:03:28.959Z,45.91
2023-04-10T14:05:56.233Z,48.49
2023-04-10T14:08:27.321Z,46.87
2023-04-10T14:10:54.507Z,47.75
2023-04-10T14:13:24.554Z,48.46
2023-04-10T14:15:57.729Z,48.80
2023-04-10T14:18:27.855Z,48.65
2023-04-10T14:20:55.058Z,52.96
2023-04-10T14:23:22.718Z,52.61
2023-04-10T14:25:50.926Z,53.28
2023-04-10T14:28:25.680Z,49.90
2023-04-10T14:30:52.813Z,49.22
2023-04-10T14:33:22.351Z,51.34
2023-04-10T14:35:52.412Z,49.70
2023-04-10T14:38:20.602Z,48.48
2023-04-10T14:40:50.095Z,49.23
2023-04-10T14:43:25.253Z,49.03
2023-04-10T14:45:53.465Z,50.34
2023-04-10T14:48:22.995Z,51.22
2023-04-10T14:50:53.089Z,48.88
2023-04-10T14:53:23.513Z,49.68
2023-04-10T14:55:50.901Z,48.20
2023-04-10T14:58:21.429Z,48.86
2023-04-10T15:00:50.953Z,47.67
2023-04-10T15:03:18.271Z,47.41
2023-04-10T15:05:48.408Z,47.68
2023-04-10T15:08:16.060Z,47.68
2023-04-10T15:10:43.675Z,47.44
2023-04-10T15:13:10.959Z,47.48
2023-04-10T15:15:38.217Z,48.37
2023-04-10T15:18:05.833Z,48.56
2023-04-10T15:20:33.241Z,49.43
2023-04-10T15:23:02.328Z,50.83
2023-04-10T15:25:29.700Z,49.17
2023-04-10T15:28:01.919Z,49.54
2023-04-10T15:30:30.116Z,50.90
2023-04-10T15:32:59.422Z,49.59
2023-04-10T15:35:28.842Z,49.54
2023-04-10T15:38:03.028Z,50.10
2023-04-10T15:40:30.175Z,48.23
2023-04-10T15:43:01.860Z,48.36
2023-04-10T15:45:29.128Z,48.59
2023-04-10T15:48:01.447Z,47.17
2023-04-10T15:50:30.345Z,47.13
2023-04-10T15:52:57.579Z,48.48
2023-04-10T15:55:33.986Z,44.93
2023-04-10T15:58:03.860Z,44.81
2023-04-10T16:00:33.445Z,44.89
2023-04-10T16:03:03.766Z,43.78
2023-04-10T16:05:34.700Z,44.61
2023-04-10T16:08:03.324Z,45.68
2023-04-10T16:10:34.352Z,47.01
2023-04-10T16:13:07.276Z,47.89
2023-04-10T16:15:36.432Z,48.49
2023-04-10T16:18:10.563Z,49.09
2023-04-10T16:20:37.699Z,49.55
2023-04-10T16:23:09.993Z,50.72
2023-04-10T16:25:44.328Z,50.46
2023-04-10T16:28:14.216Z,51.60
2023-04-10T16:30:41.605Z,52.28
2023-04-10T16:33:08.848Z,51.17
2023-04-10T16:35:36.122Z,52.79
2023-04-10T16:38:04.412Z,53.70
2023-04-10T16:40:37.287Z,53.20
2023-04-10T16:43:07.432Z,52.76
2023-04-10T16:45:37.235Z,52.77
2023-04-10T16:48:10.435Z,53.34
2023-04-10T16:50:37.780Z,52.71
2023-04-10T16:53:07.936Z,53.21
2023-04-10T16:55:35.304Z,54.03
2023-04-10T16:58:02.740Z,54.17
2023-04-10T17:00:30.470Z,54.37
2023-04-10T17:03:01.225Z,55.24
2023-04-10T17:05:37.808Z,54.84
2023-04-10T17:08:05.522Z,54.78
2023-04-10T17:10:32.728Z,55.44
2023-04-10T17:12:59.840Z,55.63
2023-04-10T17:15:27.076Z,55.27
2023-04-10T17:17:54.330Z,55.63
2023-04-10T17:20:21.663Z,56.65
2023-04-10T17:22:52.169Z,56.18
2023-04-10T17:25:19.361Z,56.27
2023-04-10T17:27:46.796Z,56.19
2023-04-10T17:30:14.443Z,56.78
2023-04-10T17:32:41.954Z,56.93
2023-04-10T17:35:10.562Z,58.43
2023-04-10T17:37:38.567Z,58.23
2023-04-10T17:40:07.228Z,57.96
2023-04-10T17:42:36.124Z,58.64
2023-04-10T17:45:03.432Z,58.55
2023-04-10T17:47:33.570Z,59.78
2023-04-10T17:50:00.786Z,59.36
2023-04-10T17:52:28.058Z,59.76
2023-04-10T17:54:55.384Z,60.38
2023-04-10T17:57:22.465Z,59.74
2023-04-10T17:59:49.533Z,60.23
2023-04-10T18:02:16.690Z,60.63
2023-04-10T18:04:44.035Z,60.64
2023-04-10T18:07:11.583Z,61.13
2023-04-10T18:09:47.631Z,62.12
2023-04-10T18:12:14.691Z,62.03
2023-04-10T18:14:42.903Z,61.80
2023-04-10T18:17:10.087Z,62.67
2023-04-10T18:19:37.673Z,62.85
2023-04-10T18:22:04.896Z,63.20
2023-04-10T18:24:35.427Z,63.16
2023-04-10T18:27:03.839Z,63.34
2023-04-10T18:29:31.477Z,63.80
2023-04-10T18:31:58.852Z,63.69
2023-04-10T18:34:32.078Z,64.07
2023-04-10T18:37:04.659Z,64.58
2023-04-10T18:39:32.896Z,64.77
2023-04-10T18:42:02.622Z,64.42
2023-04-10T18:44:30.586Z,65.38
2023-04-10T18:47:04.675Z,65.49
2023-04-10T18:49:32.541Z,65.43
2023-04-10T18:52:00.690Z,65.89
2023-04-10T18:54:29.057Z,66.26
2023-04-10T18:56:56.980Z,66.32
2023-04-10T18:59:24.493Z,66.79
2023-04-10T19:01:51.773Z,67.42
2023-04-10T19:04:19.831Z,68.00
2023-04-10T19:06:47.315Z,68.58
2023-04-10T19:09:14.935Z,69.64
2023-04-10T19:11:42.892Z,70.51
2023-04-10T19:14:10.293Z,70.67
2023-04-10T19:16:39.595Z,71.29
2023-04-10T19:19:07.202Z,72.04
2023-04-10T19:21:34.574Z,72.76
2023-04-10T19:24:01.772Z,74.03
2023-04-10T19:26:28.880Z,75.63
2023-04-10T19:28:56.228Z,77.98
2023-04-10T19:31:24.023Z,78.87
2023-04-10T19:33:51.322Z,79.77
2023-04-10T19:36:18.677Z,82.24
2023-04-10T19:38:48.951Z,83.46
2023-04-10T19:41:16.676Z,84.88
2023-04-10T19:43:43.898Z,87.13
2023-04-10T19:46:21.492Z,87.71
2023-04-10T19:48:49.036Z,89.24
2023-04-10T19:51:16.198Z,90.21
2023-04-10T19:53:46.032Z,91.12
2023-04-10T19:56:13.578Z,92.99
2023-04-10T19:58:41.605Z,93.20
2023-04-10T20:01:10.314Z,94.52
2023-04-10T20:03:38.567Z,95.70
2023-04-10T20:06:07.578Z,95.43
2023-04-10T20:08:35.719Z,95.97
2023-04-10T20:11:06.114Z,97.66
2023-04-10T20:13:34.422Z,97.94
2023-04-10T20:16:01.920Z,99.22
2023-04-10T20:18:30.816Z,99.23
2023-04-10T20:20:57.959Z,100.00
2023-04-10T20:23:25.377Z,100.00
2023-04-10T20:25:52.539Z,100.00
2023-04-10T20:28:19.842Z,100.00
2023-04-10T20:30:46.957Z,100.00
2023-04-10T20:33:14.082Z,100.00
2023-04-10T20:35:41.234Z,100.00
2023-04-10T20:38:08.442Z,100.00
2023-04-10T20:40:36.113Z,100.00
2023-04-10T20:43:03.242Z,100.00
2023-04-10T20:45:30.342Z,100.00
2023-04-10T20:47:57.731Z,100.00
2023-04-10T20:50:25.063Z,100.00
2023-04-10T20:52:52.144Z,100.00
2023-04-10T20:55:19.354Z,100.00
2023-04-10T20:57:47.888Z,100.00
2023-04-10T21:00:15.594Z,100.00
2023-04-10T21:02:42.777Z,100.00
2023-04-10T21:05:11.361Z,100.00
2023-04-10T21:07:38.535Z,100.00
2023-04-10T21:10:06.355Z,100.00
2023-04-10T21:12:33.582Z,100.00
2023-04-10T21:15:00.820Z,100.00
2023-04-10T21:17:31.314Z,100.00
2023-04-10T21:19:59.148Z,100.00
2023-04-10T21:22:29.112Z,100.00
2023-04-10T21:24:56.649Z,100.00
2023-04-10T21:27:24.050Z,100.00
2023-04-10T21:29:51.267Z,100.00
2023-04-10T21:32:19.942Z,100.00
2023-04-10T21:34:47.080Z,100.00
2023-04-10T21:37:19.925Z,100.00
2023-04-10T21:39:49.722Z,100.00
2023-04-10T21:42:18.800Z,100.00
2023-04-10T21:44:46.162Z,100.00
2023-04-10T21:47:13.287Z,100.00
2023-04-10T21:49:40.442Z,100.00
2023-04-10T21:52:07.801Z,100.00
2023-04-10T21:54:34.937Z,100.00
2023-04-10T21:57:02.272Z,100.00
2023-04-10T21:59:31.983Z,100.00
2023-04-10T22:01:59.320Z,100.00
2023-04-10T22:04:27.190Z,100.00
2023-04-10T22:06:54.163Z,100.00
2023-04-10T22:09:27.614Z,100.00
2023-04-10T22:11:57.786Z,100.00
2023-04-10T22:14:25.672Z,100.00
2023-04-10T22:16:52.701Z,100.00
2023-04-10T22:19:19.812Z,100.00
2023-04-10T22:21:46.913Z,100.00
2023-04-10T22:24:17.008Z,100.00
2023-04-10T22:26:46.100Z,100.00
2023-04-10T22:29:14.660Z,100.00
2023-04-10T22:31:43.432Z,100.00
2023-04-10T22:34:11.039Z,100.00
2023-04-10T22:36:38.122Z,100.00
2023-04-10T22:39:05.584Z,100.00
2023-04-10T22:41:33.201Z,100.00
2023-04-10T22:44:00.503Z,100.00
2023-04-10T22:46:27.842Z,100.00
2023-04-10T22:48:56.408Z,100.00
2023-04-10T22:51:23.851Z,100.00
2023-04-10T22:53:51.475Z,100.00
2023-04-10T22:56:19.721Z,100.00
2023-04-10T22:58:46.841Z,100.00
2023-04-10T23:01:13.898Z,100.00
2023-04-10T23:03:41.072Z,100.00
2023-04-10T23:06:08.630Z,100.00
2023-04-10T23:08:36.703Z,100.00
2023-04-10T23:11:03.984Z,100.00
2023-04-10T23:13:31.214Z,100.00
2023-04-10T23:15:58.309Z,100.00
2023-04-10T23:18:25.421Z,100.00
2023-04-10T23:20:52.542Z,100.00
2023-04-10T23:23:20.041Z,100.00
2023-04-10T23:25:47.531Z,100.00
2023-04-10T23:28:15.304Z,100.00
2023-04-10T23:30:42.653Z,100.00
2023-04-10T23:33:09.761Z,100.00
2023-04-10T23:35:36.930Z,100.00
2023-04-10T23:38:04.099Z,100.00
2023-04-10T23:40:31.303Z,100.00
2023-04-10T23:42:58.400Z,100.00
2023-04-10T23:45:25.513Z,100.00
2023-04-10T23:47:52.970Z,100.00
2023-04-10T23:50:20.098Z,100.00
2023-04-10T23:52:51.251Z,100.00
2023-04-10T23:55:18.681Z,100.00
2023-04-10T23:57:45.822Z,100.00
